sensor_id;sensor_type;location;lat;lon;timestamp;temperature;humidity
24374;DHT22;12498;50.880;12.096;2023-04-25T00:01:38;8.00;1.00
24374;DHT22;12498;50.880;12.096;2023-04-25T00:04:04;8.20;1.00
24374;DHT22;12498;50.880;12.096;2023-04-25T00:06:34;8.00;1.00
24374;DHT22;12498;50.880;12.096;2023-04-25T00:09:02;8.10;1.00
24374;DHT22;12498;50.880;12.096;2023-04-25T00:11:28;7.90;1.00
24374;DHT22;12498;50.880;12.096;2023-04-25T00:13:56;8.10;1.00
24374;DHT22;12498;50.880;12.096;2023-04-25T00:16:22;7.90;1.00
24374;DHT22;12498;50.880;12.096;2023-04-25T00:18:49;8.00;1.00
24374;DHT22;12498;50.880;12.096;2023-04-25T00:21:18;7.80;1.00
24374;DHT22;12498;50.880;12.096;2023-04-25T00:23:43;8.10;1.00
24374;DHT22;12498;50.880;12.096;2023-04-25T00:26:11;7.70;1.00
24374;DHT22;12498;50.880;12.096;2023-04-25T00:28:37;7.80;1.00
24374;DHT22;12498;50.880;12.096;2023-04-25T00:31:03;7.70;1.00
24374;DHT22;12498;50.880;12.096;2023-04-25T00:33:29;7.80;1.00
24374;DHT22;12498;50.880;12.096;2023-04-25T00:35:55;7.90;1.00
24374;DHT22;12498;50.880;12.096;2023-04-25T00:38:21;7.80;1.00
24374;DHT22;12498;50.880;12.096;2023-04-25T00:40:47;7.90;1.00
24374;DHT22;12498;50.880;12.096;2023-04-25T00:43:13;8.00;1.00
24374;DHT22;12498;50.880;12.096;2023-04-25T00:45:39;8.00;1.00
24374;DHT22;12498;50.880;12.096;2023-04-25T00:48:05;8.00;1.00
24374;DHT22;12498;50.880;12.096;2023-04-25T00:50:33;7.90;1.00
24374;DHT22;12498;50.880;12.096;2023-04-25T00:52:59;7.80;1.00
24374;DHT22;12498;50.880;12.096;2023-04-25T00:55:24;8.00;1.00
24374;DHT22;12498;50.880;12.096;2023-04-25T00:57:50;8.00;1.00
24374;DHT22;12498;50.880;12.096;2023-04-25T01:00:16;8.00;1.00
24374;DHT22;12498;50.880;12.096;2023-04-25T01:02:43;7.90;1.00
24374;DHT22;12498;50.880;12.096;2023-04-25T01:05:10;8.00;1.00
24374;DHT22;12498;50.880;12.096;2023-04-25T01:07:37;8.20;1.00
24374;DHT22;12498;50.880;12.096;2023-04-25T01:10:04;7.80;1.00
24374;DHT22;12498;50.880;12.096;2023-04-25T01:12:30;7.80;1.00
24374;DHT22;12498;50.880;12.096;2023-04-25T01:14:56;8.00;1.00
24374;DHT22;12498;50.880;12.096;2023-04-25T01:17:21;7.80;1.00
24374;DHT22;12498;50.880;12.096;2023-04-25T01:19:47;8.00;1.00
24374;DHT22;12498;50.880;12.096;2023-04-25T01:22:14;7.70;1.00
24374;DHT22;12498;50.880;12.096;2023-04-25T01:24:40;7.80;1.00
24374;DHT22;12498;50.880;12.096;2023-04-25T01:27:07;7.90;1.00
24374;DHT22;12498;50.880;12.096;2023-04-25T01:29:33;8.00;1.00
24374;DHT22;12498;50.880;12.096;2023-04-25T01:32:00;7.80;1.00
24374;DHT22;12498;50.880;12.096;2023-04-25T01:34:26;7.90;1.00
24374;DHT22;12498;50.880;12.096;2023-04-25T01:36:53;7.80;1.00
24374;DHT22;12498;50.880;12.096;2023-04-25T01:39:19;7.90;1.00
24374;DHT22;12498;50.880;12.096;2023-04-25T01:41:46;8.00;1.00
24374;DHT22;12498;50.880;12.096;2023-04-25T01:44:11;8.00;1.00
24374;DHT22;12498;50.880;12.096;2023-04-25T01:46:40;7.90;1.00
24374;DHT22;12498;50.880;12.096;2023-04-25T01:49:06;7.70;1.00
24374;DHT22;12498;50.880;12.096;2023-04-25T01:51:32;8.00;1.00
24374;DHT22;12498;50.880;12.096;2023-04-25T01:53:59;7.90;1.00
24374;DHT22;12498;50.880;12.096;2023-04-25T01:56:25;8.00;1.00
24374;DHT22;12498;50.880;12.096;2023-04-25T01:58:51;7.80;1.00
24374;DHT22;12498;50.880;12.096;2023-04-25T02:01:16;7.80;1.00
24374;DHT22;12498;50.880;12.096;2023-04-25T02:03:43;7.90;1.00
24374;DHT22;12498;50.880;12.096;2023-04-25T02:06:08;7.70;1.00
24374;DHT22;12498;50.880;12.096;2023-04-25T02:08:34;7.70;1.00
24374;DHT22;12498;50.880;12.096;2023-04-25T02:11:00;7.50;1.00
24374;DHT22;12498;50.880;12.096;2023-04-25T02:13:25;7.50;1.00
24374;DHT22;12498;50.880;12.096;2023-04-25T02:15:51;7.50;1.00
24374;DHT22;12498;50.880;12.096;2023-04-25T02:18:16;7.60;1.00
24374;DHT22;12498;50.880;12.096;2023-04-25T02:20:43;7.50;1.00
24374;DHT22;12498;50.880;12.096;2023-04-25T02:23:09;7.80;1.00
24374;DHT22;12498;50.880;12.096;2023-04-25T02:25:35;8.20;1.00
24374;DHT22;12498;50.880;12.096;2023-04-25T02:28:00;7.80;1.00
24374;DHT22;12498;50.880;12.096;2023-04-25T02:30:26;7.60;1.00
24374;DHT22;12498;50.880;12.096;2023-04-25T02:32:52;7.30;1.00
24374;DHT22;12498;50.880;12.096;2023-04-25T02:35:18;7.40;1.00
24374;DHT22;12498;50.880;12.096;2023-04-25T02:37:43;7.30;1.00
24374;DHT22;12498;50.880;12.096;2023-04-25T02:40:09;7.30;1.00
24374;DHT22;12498;50.880;12.096;2023-04-25T02:42:35;7.30;1.00
24374;DHT22;12498;50.880;12.096;2023-04-25T02:45:01;7.60;1.00
24374;DHT22;12498;50.880;12.096;2023-04-25T02:47:27;7.50;1.00
24374;DHT22;12498;50.880;12.096;2023-04-25T02:49:53;7.40;1.00
24374;DHT22;12498;50.880;12.096;2023-04-25T02:52:19;7.30;1.00
24374;DHT22;12498;50.880;12.096;2023-04-25T02:54:44;7.30;1.00
24374;DHT22;12498;50.880;12.096;2023-04-25T02:57:10;7.30;1.00
24374;DHT22;12498;50.880;12.096;2023-04-25T02:59:36;7.50;1.00
24374;DHT22;12498;50.880;12.096;2023-04-25T03:02:01;7.50;1.00
24374;DHT22;12498;50.880;12.096;2023-04-25T03:04:27;7.20;1.00
24374;DHT22;12498;50.880;12.096;2023-04-25T03:06:53;7.50;1.00
24374;DHT22;12498;50.880;12.096;2023-04-25T03:09:19;7.50;2.00
24374;DHT22;12498;50.880;12.096;2023-04-25T03:11:45;7.20;1.00
24374;DHT22;12498;50.880;12.096;2023-04-25T03:14:11;7.30;1.00
24374;DHT22;12498;50.880;12.096;2023-04-25T03:16:37;7.50;1.00
24374;DHT22;12498;50.880;12.096;2023-04-25T03:19:04;7.40;1.00
24374;DHT22;12498;50.880;12.096;2023-04-25T03:21:31;7.30;1.00
24374;DHT22;12498;50.880;12.096;2023-04-25T03:23:57;7.50;1.00
24374;DHT22;12498;50.880;12.096;2023-04-25T03:26:23;7.40;1.00
24374;DHT22;12498;50.880;12.096;2023-04-25T03:28:49;7.50;1.00
24374;DHT22;12498;50.880;12.096;2023-04-25T03:31:15;7.60;1.00
24374;DHT22;12498;50.880;12.096;2023-04-25T03:33:40;7.40;1.00
24374;DHT22;12498;50.880;12.096;2023-04-25T03:36:06;7.60;2.70
24374;DHT22;12498;50.880;12.096;2023-04-25T03:38:32;7.40;1.00
24374;DHT22;12498;50.880;12.096;2023-04-25T03:40:58;7.40;1.00
24374;DHT22;12498;50.880;12.096;2023-04-25T03:43:23;7.40;1.00
24374;DHT22;12498;50.880;12.096;2023-04-25T03:45:49;7.30;1.00
24374;DHT22;12498;50.880;12.096;2023-04-25T03:48:15;7.40;1.00
24374;DHT22;12498;50.880;12.096;2023-04-25T03:50:40;7.40;1.00
24374;DHT22;12498;50.880;12.096;2023-04-25T03:53:06;7.40;1.00
24374;DHT22;12498;50.880;12.096;2023-04-25T03:55:32;7.50;1.00
24374;DHT22;12498;50.880;12.096;2023-04-25T03:57:58;7.40;1.00
24374;DHT22;12498;50.880;12.096;2023-04-25T04:00:24;7.60;1.00
24374;DHT22;12498;50.880;12.096;2023-04-25T04:02:50;7.50;1.00
24374;DHT22;12498;50.880;12.096;2023-04-25T04:05:15;7.50;1.00
24374;DHT22;12498;50.880;12.096;2023-04-25T04:07:41;8.00;1.00
24374;DHT22;12498;50.880;12.096;2023-04-25T04:10:11;7.40;1.00
24374;DHT22;12498;50.880;12.096;2023-04-25T04:12:38;7.50;1.00
24374;DHT22;12498;50.880;12.096;2023-04-25T04:15:04;7.60;1.00
24374;DHT22;12498;50.880;12.096;2023-04-25T04:17:31;7.50;1.00
24374;DHT22;12498;50.880;12.096;2023-04-25T04:19:57;7.50;1.00
24374;DHT22;12498;50.880;12.096;2023-04-25T04:22:23;7.70;1.00
24374;DHT22;12498;50.880;12.096;2023-04-25T04:24:49;7.80;1.00
24374;DHT22;12498;50.880;12.096;2023-04-25T04:27:19;7.60;1.00
24374;DHT22;12498;50.880;12.096;2023-04-25T04:32:12;7.60;1.00
24374;DHT22;12498;50.880;12.096;2023-04-25T04:37:05;7.60;1.00
24374;DHT22;12498;50.880;12.096;2023-04-25T04:39:35;7.90;1.00
24374;DHT22;12498;50.880;12.096;2023-04-25T04:42:01;7.70;1.00
24374;DHT22;12498;50.880;12.096;2023-04-25T04:44:27;7.70;1.00
24374;DHT22;12498;50.880;12.096;2023-04-25T04:46:54;8.10;1.00
24374;DHT22;12498;50.880;12.096;2023-04-25T04:49:20;8.20;28.80
24374;DHT22;12498;50.880;12.096;2023-04-25T04:54:12;8.70;99.90
24374;DHT22;12498;50.880;12.096;2023-04-25T04:59:04;9.20;18.90
24374;DHT22;12498;50.880;12.096;2023-04-25T05:01:30;9.40;1.00
24374;DHT22;12498;50.880;12.096;2023-04-25T05:03:56;9.40;1.00
24374;DHT22;12498;50.880;12.096;2023-04-25T05:06:27;9.00;1.00
24374;DHT22;12498;50.880;12.096;2023-04-25T05:18:40;8.50;1.00
24374;DHT22;12498;50.880;12.096;2023-04-25T05:21:05;8.40;1.00
24374;DHT22;12498;50.880;12.096;2023-04-25T05:25:59;8.30;1.00
24374;DHT22;12498;50.880;12.096;2023-04-25T05:28:28;8.40;1.00
24374;DHT22;12498;50.880;12.096;2023-04-25T05:33:20;8.40;1.00
24374;DHT22;12498;50.880;12.096;2023-04-25T05:35:46;8.60;1.00
24374;DHT22;12498;50.880;12.096;2023-04-25T05:38:12;8.30;1.00
24374;DHT22;12498;50.880;12.096;2023-04-25T05:43:04;8.20;1.00
24374;DHT22;12498;50.880;12.096;2023-04-25T05:45:29;8.70;1.00
24374;DHT22;12498;50.880;12.096;2023-04-25T05:47:55;8.60;1.00
24374;DHT22;12498;50.880;12.096;2023-04-25T05:50:20;8.50;1.00
24374;DHT22;12498;50.880;12.096;2023-04-25T05:55:12;8.30;1.00
24374;DHT22;12498;50.880;12.096;2023-04-25T05:57:39;8.40;1.00
24374;DHT22;12498;50.880;12.096;2023-04-25T06:02:34;8.40;1.00
24374;DHT22;12498;50.880;12.096;2023-04-25T06:05:00;8.30;1.00
24374;DHT22;12498;50.880;12.096;2023-04-25T06:07:28;8.30;1.00
24374;DHT22;12498;50.880;12.096;2023-04-25T06:09:55;8.50;1.00
24374;DHT22;12498;50.880;12.096;2023-04-25T06:12:21;8.60;1.00
24374;DHT22;12498;50.880;12.096;2023-04-25T06:14:46;8.40;1.00
24374;DHT22;12498;50.880;12.096;2023-04-25T06:17:13;8.60;1.00
24374;DHT22;12498;50.880;12.096;2023-04-25T06:19:39;8.70;1.00
24374;DHT22;12498;50.880;12.096;2023-04-25T06:22:05;8.30;1.00
24374;DHT22;12498;50.880;12.096;2023-04-25T06:24:32;8.30;1.00
24374;DHT22;12498;50.880;12.096;2023-04-25T06:26:58;8.40;1.00
24374;DHT22;12498;50.880;12.096;2023-04-25T06:29:24;8.50;1.00
24374;DHT22;12498;50.880;12.096;2023-04-25T06:31:49;8.50;1.00
24374;DHT22;12498;50.880;12.096;2023-04-25T06:34:15;8.60;1.00
24374;DHT22;12498;50.880;12.096;2023-04-25T07:01:08;9.20;99.90
24374;DHT22;12498;50.880;12.096;2023-04-25T07:03:33;9.30;99.90
24374;DHT22;12498;50.880;12.096;2023-04-25T07:18:09;9.10;99.90
24374;DHT22;12498;50.880;12.096;2023-04-25T07:20:35;9.50;99.90
24374;DHT22;12498;50.880;12.096;2023-04-25T07:23:01;9.60;99.90
24374;DHT22;12498;50.880;12.096;2023-04-25T07:25:27;9.40;99.90
24374;DHT22;12498;50.880;12.096;2023-04-25T07:27:52;9.70;99.90
24374;DHT22;12498;50.880;12.096;2023-04-25T08:58:15;9.20;99.90
24374;DHT22;12498;50.880;12.096;2023-04-25T09:00:41;9.40;99.90
24374;DHT22;12498;50.880;12.096;2023-04-25T09:03:07;9.30;99.90
24374;DHT22;12498;50.880;12.096;2023-04-25T11:32:07;9.50;1.00
24374;DHT22;12498;50.880;12.096;2023-04-25T11:34:33;9.60;1.00
24374;DHT22;12498;50.880;12.096;2023-04-25T13:22:58;13.10;99.90
24374;DHT22;12498;50.880;12.096;2023-04-25T13:27:50;12.00;99.90
24374;DHT22;12498;50.880;12.096;2023-04-25T13:30:16;11.50;99.90
24374;DHT22;12498;50.880;12.096;2023-04-25T13:32:41;11.10;99.90
24374;DHT22;12498;50.880;12.096;2023-04-25T13:35:10;10.70;99.90
24374;DHT22;12498;50.880;12.096;2023-04-25T13:37:36;10.60;1.00
24374;DHT22;12498;50.880;12.096;2023-04-25T13:40:03;10.50;99.90
24374;DHT22;12498;50.880;12.096;2023-04-25T13:42:31;10.40;1.00
24374;DHT22;12498;50.880;12.096;2023-04-25T13:44:56;10.50;1.00
24374;DHT22;12498;50.880;12.096;2023-04-25T13:47:22;10.20;99.90
24374;DHT22;12498;50.880;12.096;2023-04-25T13:49:49;10.50;99.90
24374;DHT22;12498;50.880;12.096;2023-04-25T13:52:15;10.20;99.90
24374;DHT22;12498;50.880;12.096;2023-04-25T13:54:40;10.60;99.90
24374;DHT22;12498;50.880;12.096;2023-04-25T13:57:06;10.20;99.90
24374;DHT22;12498;50.880;12.096;2023-04-25T13:59:32;10.50;99.90
24374;DHT22;12498;50.880;12.096;2023-04-25T14:01:58;10.30;99.90
24374;DHT22;12498;50.880;12.096;2023-04-25T14:04:24;10.50;99.90
24374;DHT22;12498;50.880;12.096;2023-04-25T14:06:50;10.90;99.90
24374;DHT22;12498;50.880;12.096;2023-04-25T14:09:17;11.10;99.90
24374;DHT22;12498;50.880;12.096;2023-04-25T14:11:43;11.30;99.90
24374;DHT22;12498;50.880;12.096;2023-04-25T14:14:08;12.30;99.90
24374;DHT22;12498;50.880;12.096;2023-04-25T14:16:34;13.60;99.90
24374;DHT22;12498;50.880;12.096;2023-04-25T14:19:01;13.30;1.00
24374;DHT22;12498;50.880;12.096;2023-04-25T14:21:27;12.80;39.10
24374;DHT22;12498;50.880;12.096;2023-04-25T14:23:53;12.40;99.90
24374;DHT22;12498;50.880;12.096;2023-04-25T14:26:19;12.20;5.20
24374;DHT22;12498;50.880;12.096;2023-04-25T14:28:45;11.70;1.00
24374;DHT22;12498;50.880;12.096;2023-04-25T14:31:10;11.70;1.00
24374;DHT22;12498;50.880;12.096;2023-04-25T14:33:36;11.70;1.00
24374;DHT22;12498;50.880;12.096;2023-04-25T14:36:05;11.90;1.00
24374;DHT22;12498;50.880;12.096;2023-04-25T14:38:31;11.70;99.90
24374;DHT22;12498;50.880;12.096;2023-04-25T14:40:56;11.90;99.90
24374;DHT22;12498;50.880;12.096;2023-04-25T14:43:22;11.60;1.00
24374;DHT22;12498;50.880;12.096;2023-04-25T14:45:47;11.50;1.00
24374;DHT22;12498;50.880;12.096;2023-04-25T14:53:06;11.10;99.90
24374;DHT22;12498;50.880;12.096;2023-04-25T14:55:32;11.20;1.00
24374;DHT22;12498;50.880;12.096;2023-04-25T15:00:23;11.40;1.00
24374;DHT22;12498;50.880;12.096;2023-04-25T15:02:50;11.40;1.00
24374;DHT22;12498;50.880;12.096;2023-04-25T15:05:16;11.40;99.90
24374;DHT22;12498;50.880;12.096;2023-04-25T15:07:43;11.00;99.90
24374;DHT22;12498;50.880;12.096;2023-04-25T15:10:09;11.00;99.90
24374;DHT22;12498;50.880;12.096;2023-04-25T15:12:45;10.80;99.90
24374;DHT22;12498;50.880;12.096;2023-04-25T15:15:11;10.90;99.90
24374;DHT22;12498;50.880;12.096;2023-04-25T15:17:45;11.20;99.90
24374;DHT22;12498;50.880;12.096;2023-04-25T15:20:13;10.90;99.90
24374;DHT22;12498;50.880;12.096;2023-04-25T15:22:40;11.10;1.00
24374;DHT22;12498;50.880;12.096;2023-04-25T15:25:07;11.10;1.00
24374;DHT22;12498;50.880;12.096;2023-04-25T15:27:33;11.10;1.00
24374;DHT22;12498;50.880;12.096;2023-04-25T15:30:06;10.90;1.00
24374;DHT22;12498;50.880;12.096;2023-04-25T15:32:33;10.90;1.00
24374;DHT22;12498;50.880;12.096;2023-04-25T15:35:05;11.00;1.00
24374;DHT22;12498;50.880;12.096;2023-04-25T15:37:32;10.80;77.50
24374;DHT22;12498;50.880;12.096;2023-04-25T15:40:10;10.70;9.50
24374;DHT22;12498;50.880;12.096;2023-04-25T15:42:40;10.60;10.30
24374;DHT22;12498;50.880;12.096;2023-04-25T15:45:08;10.50;2.60
24374;DHT22;12498;50.880;12.096;2023-04-25T15:47:34;10.50;1.00
24374;DHT22;12498;50.880;12.096;2023-04-25T15:50:01;10.30;99.90
24374;DHT22;12498;50.880;12.096;2023-04-25T15:52:27;10.10;1.00
24374;DHT22;12498;50.880;12.096;2023-04-25T15:54:53;10.10;99.90
24374;DHT22;12498;50.880;12.096;2023-04-25T15:57:19;10.00;16.20
24374;DHT22;12498;50.880;12.096;2023-04-25T15:59:46;9.90;99.90
24374;DHT22;12498;50.880;12.096;2023-04-25T16:02:13;9.90;99.90
24374;DHT22;12498;50.880;12.096;2023-04-25T16:04:39;10.20;1.00
24374;DHT22;12498;50.880;12.096;2023-04-25T16:07:04;10.20;1.00
24374;DHT22;12498;50.880;12.096;2023-04-25T16:09:31;10.00;1.00
24374;DHT22;12498;50.880;12.096;2023-04-25T16:11:58;10.10;99.90
24374;DHT22;12498;50.880;12.096;2023-04-25T16:14:23;10.00;1.00
24374;DHT22;12498;50.880;12.096;2023-04-25T16:16:49;10.10;1.00
24374;DHT22;12498;50.880;12.096;2023-04-25T16:19:15;10.40;99.90
24374;DHT22;12498;50.880;12.096;2023-04-25T16:21:40;10.50;1.00
24374;DHT22;12498;50.880;12.096;2023-04-25T16:24:07;10.80;47.70
24374;DHT22;12498;50.880;12.096;2023-04-25T16:26:33;10.90;99.90
24374;DHT22;12498;50.880;12.096;2023-04-25T16:28:58;11.00;99.90
24374;DHT22;12498;50.880;12.096;2023-04-25T16:33:50;10.80;76.00
24374;DHT22;12498;50.880;12.096;2023-04-25T16:36:16;10.60;1.00
24374;DHT22;12498;50.880;12.096;2023-04-25T16:38:41;10.40;1.00
24374;DHT22;12498;50.880;12.096;2023-04-25T16:41:07;10.40;1.00
24374;DHT22;12498;50.880;12.096;2023-04-25T16:43:33;10.50;99.90
24374;DHT22;12498;50.880;12.096;2023-04-25T16:45:59;10.60;1.00
24374;DHT22;12498;50.880;12.096;2023-04-25T16:50:51;10.70;99.90
24374;DHT22;12498;50.880;12.096;2023-04-25T16:53:17;10.50;99.90
24374;DHT22;12498;50.880;12.096;2023-04-25T16:55:43;10.40;1.00
24374;DHT22;12498;50.880;12.096;2023-04-25T16:58:09;10.40;99.90
24374;DHT22;12498;50.880;12.096;2023-04-25T17:00:39;10.40;37.00
24374;DHT22;12498;50.880;12.096;2023-04-25T17:03:06;10.60;1.00
24374;DHT22;12498;50.880;12.096;2023-04-25T17:05:32;10.30;49.40
24374;DHT22;12498;50.880;12.096;2023-04-25T17:07:58;10.30;1.00
24374;DHT22;12498;50.880;12.096;2023-04-25T17:10:24;10.40;1.00
24374;DHT22;12498;50.880;12.096;2023-04-25T17:12:49;10.20;94.90
24374;DHT22;12498;50.880;12.096;2023-04-25T17:17:42;10.30;1.00
24374;DHT22;12498;50.880;12.096;2023-04-25T17:20:08;10.10;1.00
24374;DHT22;12498;50.880;12.096;2023-04-25T17:27:34;9.70;1.00
24374;DHT22;12498;50.880;12.096;2023-04-25T17:30:01;9.70;1.00
24374;DHT22;12498;50.880;12.096;2023-04-25T17:32:28;9.80;1.00
24374;DHT22;12498;50.880;12.096;2023-04-25T17:34:54;10.00;99.90
24374;DHT22;12498;50.880;12.096;2023-04-25T17:37:22;10.20;99.90
24374;DHT22;12498;50.880;12.096;2023-04-25T17:39:50;10.50;99.90
24374;DHT22;12498;50.880;12.096;2023-04-25T17:42:16;10.60;99.90
24374;DHT22;12498;50.880;12.096;2023-04-25T17:49:34;10.60;99.90
24374;DHT22;12498;50.880;12.096;2023-04-25T17:52:00;10.50;99.90
24374;DHT22;12498;50.880;12.096;2023-04-25T17:54:26;10.10;99.90
24374;DHT22;12498;50.880;12.096;2023-04-25T17:56:52;9.80;99.90
24374;DHT22;12498;50.880;12.096;2023-04-25T17:59:19;9.70;99.90
24374;DHT22;12498;50.880;12.096;2023-04-25T18:01:45;9.60;99.90
24374;DHT22;12498;50.880;12.096;2023-04-25T18:04:11;9.40;99.90
24374;DHT22;12498;50.880;12.096;2023-04-25T18:06:36;9.50;1.00
24374;DHT22;12498;50.880;12.096;2023-04-25T18:09:03;9.40;1.00
24374;DHT22;12498;50.880;12.096;2023-04-25T18:14:06;9.20;99.90
24374;DHT22;12498;50.880;12.096;2023-04-25T18:16:41;9.20;99.90
24374;DHT22;12498;50.880;12.096;2023-04-25T18:19:07;9.10;99.90
24374;DHT22;12498;50.880;12.096;2023-04-25T18:21:42;8.90;1.00
24374;DHT22;12498;50.880;12.096;2023-04-25T18:24:13;8.90;99.90
24374;DHT22;12498;50.880;12.096;2023-04-25T18:26:41;8.90;99.90
24374;DHT22;12498;50.880;12.096;2023-04-25T18:29:08;8.80;99.90
24374;DHT22;12498;50.880;12.096;2023-04-25T18:31:34;8.70;99.90
24374;DHT22;12498;50.880;12.096;2023-04-25T18:34:01;8.70;99.90
24374;DHT22;12498;50.880;12.096;2023-04-25T18:36:27;8.70;40.80
24374;DHT22;12498;50.880;12.096;2023-04-25T18:38:54;8.70;99.90
24374;DHT22;12498;50.880;12.096;2023-04-25T18:41:23;8.50;25.50
24374;DHT22;12498;50.880;12.096;2023-04-25T18:43:51;8.30;2.10
24374;DHT22;12498;50.880;12.096;2023-04-25T18:46:17;8.50;1.00
24374;DHT22;12498;50.880;12.096;2023-04-25T18:48:52;8.30;1.00
24374;DHT22;12498;50.880;12.096;2023-04-25T18:51:21;8.30;1.00
24374;DHT22;12498;50.880;12.096;2023-04-25T18:53:48;8.30;1.00
24374;DHT22;12498;50.880;12.096;2023-04-25T18:56:13;8.40;1.00
24374;DHT22;12498;50.880;12.096;2023-04-25T18:58:40;8.50;1.00
24374;DHT22;12498;50.880;12.096;2023-04-25T19:01:06;8.20;25.80
24374;DHT22;12498;50.880;12.096;2023-04-25T19:05:58;8.10;1.00
24374;DHT22;12498;50.880;12.096;2023-04-25T19:08:24;8.10;1.00
24374;DHT22;12498;50.880;12.096;2023-04-25T19:10:50;8.20;1.00
24374;DHT22;12498;50.880;12.096;2023-04-25T19:13:18;8.20;33.80
24374;DHT22;12498;50.880;12.096;2023-04-25T19:15:45;8.10;1.00
24374;DHT22;12498;50.880;12.096;2023-04-25T19:18:10;8.10;1.00
24374;DHT22;12498;50.880;12.096;2023-04-25T19:20:36;8.10;1.00
24374;DHT22;12498;50.880;12.096;2023-04-25T19:23:03;8.20;99.90
24374;DHT22;12498;50.880;12.096;2023-04-25T19:25:29;8.20;99.90
24374;DHT22;12498;50.880;12.096;2023-04-25T19:27:55;8.10;44.40
24374;DHT22;12498;50.880;12.096;2023-04-25T19:30:21;8.20;99.90
24374;DHT22;12498;50.880;12.096;2023-04-25T19:32:47;8.40;99.90
24374;DHT22;12498;50.880;12.096;2023-04-25T19:35:13;8.20;99.90
24374;DHT22;12498;50.880;12.096;2023-04-25T19:37:39;8.10;99.90
24374;DHT22;12498;50.880;12.096;2023-04-25T19:40:11;8.10;99.90
24374;DHT22;12498;50.880;12.096;2023-04-25T19:42:37;8.00;99.90
24374;DHT22;12498;50.880;12.096;2023-04-25T19:45:03;7.90;99.90
24374;DHT22;12498;50.880;12.096;2023-04-25T19:47:28;8.00;99.90
24374;DHT22;12498;50.880;12.096;2023-04-25T19:49:54;8.00;99.90
24374;DHT22;12498;50.880;12.096;2023-04-25T19:52:20;8.20;99.90
24374;DHT22;12498;50.880;12.096;2023-04-25T19:54:45;7.90;99.90
24374;DHT22;12498;50.880;12.096;2023-04-25T19:57:11;7.80;1.00
24374;DHT22;12498;50.880;12.096;2023-04-25T19:59:38;7.90;99.90
24374;DHT22;12498;50.880;12.096;2023-04-25T20:02:04;8.00;99.90
24374;DHT22;12498;50.880;12.096;2023-04-25T20:04:30;7.90;1.00
24374;DHT22;12498;50.880;12.096;2023-04-25T20:06:56;7.70;1.00
24374;DHT22;12498;50.880;12.096;2023-04-25T20:09:22;7.90;1.00
24374;DHT22;12498;50.880;12.096;2023-04-25T20:11:47;7.70;99.90
24374;DHT22;12498;50.880;12.096;2023-04-25T20:14:13;7.70;99.90
24374;DHT22;12498;50.880;12.096;2023-04-25T20:16:39;7.70;1.00
24374;DHT22;12498;50.880;12.096;2023-04-25T20:19:05;7.70;9.40
24374;DHT22;12498;50.880;12.096;2023-04-25T20:21:31;7.90;1.00
24374;DHT22;12498;50.880;12.096;2023-04-25T20:24:00;8.00;99.90
24374;DHT22;12498;50.880;12.096;2023-04-25T20:26:28;7.80;99.90
24374;DHT22;12498;50.880;12.096;2023-04-25T20:28:58;8.00;1.00
24374;DHT22;12498;50.880;12.096;2023-04-25T20:31:24;7.80;1.00
24374;DHT22;12498;50.880;12.096;2023-04-25T20:33:50;7.80;1.00
24374;DHT22;12498;50.880;12.096;2023-04-25T20:36:16;7.90;99.90
24374;DHT22;12498;50.880;12.096;2023-04-25T20:38:41;7.70;99.90
24374;DHT22;12498;50.880;12.096;2023-04-25T20:41:08;8.00;99.90
24374;DHT22;12498;50.880;12.096;2023-04-25T20:43:33;7.60;99.90
24374;DHT22;12498;50.880;12.096;2023-04-25T20:46:02;7.60;99.90
24374;DHT22;12498;50.880;12.096;2023-04-25T20:50:55;7.50;1.00
24374;DHT22;12498;50.880;12.096;2023-04-25T20:53:21;7.80;1.00
24374;DHT22;12498;50.880;12.096;2023-04-25T20:55:47;7.50;1.00
24374;DHT22;12498;50.880;12.096;2023-04-25T20:58:13;7.90;1.00
24374;DHT22;12498;50.880;12.096;2023-04-25T21:00:42;7.30;99.90
24374;DHT22;12498;50.880;12.096;2023-04-25T21:03:08;7.40;99.90
24374;DHT22;12498;50.880;12.096;2023-04-25T21:05:34;7.40;99.90
24374;DHT22;12498;50.880;12.096;2023-04-25T21:08:00;6.40;99.90
24374;DHT22;12498;50.880;12.096;2023-04-25T21:10:27;7.20;99.90
24374;DHT22;12498;50.880;12.096;2023-04-25T21:12:53;7.10;1.00
24374;DHT22;12498;50.880;12.096;2023-04-25T21:15:20;7.40;1.00
24374;DHT22;12498;50.880;12.096;2023-04-25T21:17:46;7.20;1.00
24374;DHT22;12498;50.880;12.096;2023-04-25T21:20:14;7.40;11.40
24374;DHT22;12498;50.880;12.096;2023-04-25T21:22:42;7.30;73.20
24374;DHT22;12498;50.880;12.096;2023-04-25T21:27:44;7.00;99.90
24374;DHT22;12498;50.880;12.096;2023-04-25T21:32:37;7.00;99.90
24374;DHT22;12498;50.880;12.096;2023-04-25T21:35:05;7.10;99.90
24374;DHT22;12498;50.880;12.096;2023-04-25T21:37:31;7.10;1.00
24374;DHT22;12498;50.880;12.096;2023-04-25T21:42:22;7.00;1.00
24374;DHT22;12498;50.880;12.096;2023-04-25T21:44:48;7.40;1.00
24374;DHT22;12498;50.880;12.096;2023-04-25T21:47:13;7.10;99.90
24374;DHT22;12498;50.880;12.096;2023-04-25T21:49:39;7.20;99.90
24374;DHT22;12498;50.880;12.096;2023-04-25T21:52:05;7.20;99.90
24374;DHT22;12498;50.880;12.096;2023-04-25T21:54:31;7.30;99.90
24374;DHT22;12498;50.880;12.096;2023-04-25T21:56:56;7.10;99.90
24374;DHT22;12498;50.880;12.096;2023-04-25T21:59:23;7.10;99.90
24374;DHT22;12498;50.880;12.096;2023-04-25T22:01:49;7.10;99.90
24374;DHT22;12498;50.880;12.096;2023-04-25T22:04:15;7.10;99.90
24374;DHT22;12498;50.880;12.096;2023-04-25T22:06:40;7.10;1.00
24374;DHT22;12498;50.880;12.096;2023-04-25T22:09:06;7.10;1.00
24374;DHT22;12498;50.880;12.096;2023-04-25T22:11:32;7.10;55.60
24374;DHT22;12498;50.880;12.096;2023-04-25T22:13:57;7.40;81.10
24374;DHT22;12498;50.880;12.096;2023-04-25T22:16:23;7.20;99.90
24374;DHT22;12498;50.880;12.096;2023-04-25T22:18:49;6.90;99.90
24374;DHT22;12498;50.880;12.096;2023-04-25T22:21:16;7.10;1.00
24374;DHT22;12498;50.880;12.096;2023-04-25T22:29:12;6.90;1.00
24374;DHT22;12498;50.880;12.096;2023-04-25T22:31:38;7.30;1.00
24374;DHT22;12498;50.880;12.096;2023-04-25T22:34:03;7.10;1.00
24374;DHT22;12498;50.880;12.096;2023-04-25T22:36:29;6.90;1.00
24374;DHT22;12498;50.880;12.096;2023-04-25T22:38:54;7.10;12.60
24374;DHT22;12498;50.880;12.096;2023-04-25T22:41:20;7.10;25.70
24374;DHT22;12498;50.880;12.096;2023-04-25T22:43:47;7.00;25.50
24374;DHT22;12498;50.880;12.096;2023-04-25T22:46:17;7.00;62.60
24374;DHT22;12498;50.880;12.096;2023-04-25T22:48:43;7.20;99.90
24374;DHT22;12498;50.880;12.096;2023-04-25T22:51:10;6.90;99.90
24374;DHT22;12498;50.880;12.096;2023-04-25T22:53:36;6.90;99.90
24374;DHT22;12498;50.880;12.096;2023-04-25T22:56:05;6.90;99.90
24374;DHT22;12498;50.880;12.096;2023-04-25T22:58:31;6.80;99.90
24374;DHT22;12498;50.880;12.096;2023-04-25T23:00:57;6.80;99.90
24374;DHT22;12498;50.880;12.096;2023-04-25T23:03:23;6.80;99.90
24374;DHT22;12498;50.880;12.096;2023-04-25T23:06:00;6.80;99.90
24374;DHT22;12498;50.880;12.096;2023-04-25T23:09:17;6.60;99.90